Time;durP1;ratioP1;P1;durP2;ratioP2;P2;SDS_P1;SDS_P2;PMS_P1;PMS_P2;Temp;Humidity;BMP_temperature;BMP_pressure;BME280_temperature;BME280_humidity;BME280_pressure;Samples;Min_cycle;Max_cycle;Signal;HPM_P1;HPM_P2
2022/11/27 00:00:56;;;;;;;19.58;8.82;;;5.50;99.90;;;;;;5068142;28;20107;-47
2022/11/27 00:03:21;;;;;;;20.73;8.98;;;5.50;99.90;;;;;;5069166;28;20082;-50
2022/11/27 00:05:52;;;;;;;15.50;8.32;;;5.50;99.90;;;;;;5070103;28;20474;-48
2022/11/27 00:08:18;;;;;;;;;;;5.40;99.90;;;;;;5071561;28;20464;-46
2022/11/27 00:10:43;;;;;;;20.92;8.93;;;5.30;99.90;;;;;;5070842;28;19995;-46
2022/11/27 00:13:08;;;;;;;18.65;8.68;;;5.20;99.90;;;;;;5071116;28;20053;-45
2022/11/27 00:15:34;;;;;;;20.05;8.60;;;5.20;99.90;;;;;;5071519;28;20499;-46
2022/11/27 00:17:59;;;;;;;17.08;8.57;;;5.10;99.90;;;;;;5071119;28;20039;-49
2022/11/27 00:20:25;;;;;;;12.88;7.63;;;5.00;99.90;;;;;;5070026;28;20035;-47
2022/11/27 00:22:50;;;;;;;15.15;8.20;;;4.90;99.90;;;;;;5071551;28;20615;-47
2022/11/27 00:25:16;;;;;;;20.02;8.57;;;4.80;99.90;;;;;;5071617;28;20032;-47
2022/11/27 00:27:41;;;;;;;20.23;9.23;;;4.80;99.90;;;;;;5071951;28;20048;-47
2022/11/27 00:30:07;;;;;;;23.27;10.07;;;4.80;99.90;;;;;;5071195;28;20090;-46
2022/11/27 00:32:33;;;;;;;12.82;7.93;;;4.80;99.90;;;;;;5071414;28;20024;-47
2022/11/27 00:34:58;;;;;;;14.55;7.80;;;4.70;99.90;;;;;;5071518;28;20040;-46
2022/11/27 00:37:23;;;;;;;18.02;7.80;;;4.50;99.90;;;;;;5071329;28;20469;-48
2022/11/27 00:39:49;;;;;;;14.20;8.00;;;4.50;99.90;;;;;;5070699;28;20036;-50
2022/11/27 00:42:14;;;;;;;20.15;8.68;;;4.40;99.90;;;;;;5071038;28;20065;-47
2022/11/27 00:44:40;;;;;;;18.42;8.48;;;4.40;99.90;;;;;;5071060;28;20032;-46
2022/11/27 00:47:05;;;;;;;17.27;8.82;;;4.40;99.90;;;;;;5071731;28;20016;-46
2022/11/27 00:49:31;;;;;;;22.67;10.10;;;4.30;99.90;;;;;;5071171;28;20160;-47
2022/11/27 00:51:56;;;;;;;31.70;10.38;;;4.30;99.90;;;;;;5071751;28;20480;-49
2022/11/27 00:54:22;;;;;;;27.17;11.43;;;4.30;99.90;;;;;;5071189;28;20260;-51
2022/11/27 00:56:47;;;;;;;22.27;10.07;;;4.30;99.90;;;;;;5071746;28;20105;-51
2022/11/27 00:59:13;;;;;;;18.20;10.05;;;4.30;99.90;;;;;;5070586;28;20036;-47
2022/11/27 01:01:41;;;;;;;21.50;10.05;;;4.30;99.90;;;;;;5071351;28;20020;-48
2022/11/27 01:04:10;;;;;;;14.55;8.50;;;4.30;99.90;;;;;;5071243;28;20427;-48
2022/11/27 01:06:35;;;;;;;23.17;11.23;;;4.30;99.90;;;;;;5071090;28;20228;-50
2022/11/27 01:09:02;;;;;;;22.13;9.30;;;4.20;99.90;;;;;;5071387;28;20028;-50
2022/11/27 01:11:30;;;;;;;21.25;9.68;;;4.20;99.90;;;;;;5070441;28;20032;-50
2022/11/27 01:13:58;;;;;;;15.35;7.97;;;4.10;99.90;;;;;;5070107;28;20040;-46
2022/11/27 01:16:26;;;;;;;17.98;8.77;;;4.00;99.90;;;;;;5070620;28;20063;-47
2022/11/27 01:18:54;;;;;;;15.82;8.38;;;4.00;99.90;;;;;;5070607;28;20607;-48
2022/11/27 01:21:20;;;;;;;18.33;8.30;;;4.00;99.90;;;;;;5070077;28;20028;-47
2022/11/27 01:23:47;;;;;;;18.42;8.70;;;3.90;99.90;;;;;;5070635;28;20397;-46
2022/11/27 01:26:13;;;;;;;18.20;10.20;;;3.90;99.90;;;;;;5070773;28;20158;-47
2022/11/27 01:28:40;;;;;;;15.63;8.15;;;3.80;99.90;;;;;;5070377;28;20028;-40
2022/11/27 01:31:15;;;;;;;15.27;8.80;;;3.80;99.90;;;;;;5068687;28;20371;-40
2022/11/27 01:33:41;;;;;;;18.40;8.55;;;3.70;99.90;;;;;;5070535;28;20103;-41
2022/11/27 01:36:07;;;;;;;15.43;8.57;;;3.70;99.90;;;;;;5070414;28;20237;-40
2022/11/27 01:38:34;;;;;;;16.40;8.85;;;3.70;99.90;;;;;;5070712;28;20059;-41
2022/11/27 01:41:11;;;;;;;16.73;8.75;;;3.60;99.90;;;;;;5070010;28;20043;-39
2022/11/27 01:43:38;;;;;;;20.20;9.68;;;3.60;99.90;;;;;;5070170;28;20043;-40
2022/11/27 01:46:11;;;;;;;20.08;10.80;;;3.50;99.90;;;;;;5070329;28;20385;-40
2022/11/27 01:48:36;;;;;;;21.75;11.10;;;3.50;99.90;;;;;;5068884;28;20048;-39
2022/11/27 01:51:02;;;;;;;18.23;10.50;;;3.40;99.90;;;;;;5069591;28;20028;-39
2022/11/27 01:53:28;;;;;;;19.75;11.98;;;3.50;99.90;;;;;;5070196;28;20016;-39
2022/11/27 01:55:57;;;;;;;16.10;8.68;;;3.40;99.90;;;;;;5070380;28;20439;-39
2022/11/27 01:58:26;;;;;;;23.10;11.60;;;3.40;99.90;;;;;;5070103;28;20024;-42
2022/11/27 02:00:52;;;;;;;20.27;10.10;;;3.40;99.90;;;;;;5069533;28;20031;-39
2022/11/27 02:03:17;;;;;;;20.65;11.02;;;3.40;99.90;;;;;;5069931;28;20020;-40
2022/11/27 02:05:44;;;;;;;26.70;11.48;;;3.30;99.90;;;;;;5069938;28;20038;-39
2022/11/27 02:08:12;;;;;;;28.08;11.80;;;3.30;99.90;;;;;;5069872;28;20482;-40
2022/11/27 02:10:51;;;;;;;24.95;12.52;;;3.20;99.90;;;;;;5069267;28;20481;-39
2022/11/27 02:13:21;;;;;;;26.58;13.05;;;3.20;99.90;;;;;;5069642;28;20213;-40
2022/11/27 02:15:59;;;;;;;22.48;11.48;;;3.20;99.90;;;;;;5068382;28;20028;-39
2022/11/27 02:18:30;;;;;;;24.67;12.02;;;3.20;99.90;;;;;;5069867;28;20036;-39
2022/11/27 02:21:01;;;;;;;23.17;11.73;;;3.10;99.90;;;;;;5069165;28;20047;-39
2022/11/27 02:23:52;;;;;;;24.55;11.68;;;3.10;99.90;;;;;;5067624;28;20020;-40
2022/11/27 02:26:36;;;;;;;20.02;12.27;;;3.00;99.90;;;;;;5069492;28;20082;-39
2022/11/27 02:29:05;;;;;;;24.20;11.43;;;3.10;99.90;;;;;;5069308;28;20059;-39
2022/11/27 02:32:08;;;;;;;23.48;12.32;;;3.00;99.90;;;;;;5067635;28;20024;-39
2022/11/27 02:34:51;;;;;;;21.98;10.63;;;3.10;99.90;;;;;;5062471;28;20033;-40
2022/11/27 02:37:21;;;;;;;25.70;12.07;;;3.10;99.90;;;;;;5068207;28;20028;-39
2022/11/27 02:40:19;;;;;;;28.80;11.15;;;3.10;99.90;;;;;;5068838;28;20024;-39
2022/11/27 02:43:07;;;;;;;19.05;10.63;;;3.10;99.90;;;;;;5069132;28;20020;-40
2022/11/27 02:45:40;;;;;;;19.10;10.65;;;3.00;99.90;;;;;;5059765;28;20032;-40
2022/11/27 02:48:07;;;;;;;21.50;10.52;;;2.90;99.90;;;;;;5068080;28;20025;-39
2022/11/27 02:50:35;;;;;;;25.23;11.48;;;2.90;99.90;;;;;;5068819;28;20108;-39
2022/11/27 02:53:06;;;;;;;32.60;12.88;;;3.00;99.90;;;;;;5068853;28;20025;-39
2022/11/27 02:55:33;;;;;;;;;;;2.90;99.90;;;;;;5069461;28;20032;-38
2022/11/27 02:58:00;;;;;;;21.73;10.00;;;2.90;99.90;;;;;;5068792;28;19995;-39
2022/11/27 03:00:28;;;;;;;24.63;11.75;;;2.80;99.90;;;;;;5067166;28;20025;-40
2022/11/27 03:03:02;;;;;;;28.60;11.85;;;2.90;99.90;;;;;;5069166;28;20101;-39
2022/11/27 03:05:33;;;;;;;22.17;10.95;;;2.90;99.90;;;;;;5067467;28;20028;-40
2022/11/27 03:08:04;;;;;;;25.40;10.95;;;2.90;99.90;;;;;;5069103;28;20028;-40
2022/11/27 03:10:43;;;;;;;;;;;2.90;99.90;;;;;;5068837;28;20108;-40
2022/11/27 03:13:09;;;;;;;22.95;10.75;;;2.80;99.90;;;;;;5068789;28;20417;-39
2022/11/27 03:15:45;;;;;;;22.17;11.95;;;2.80;99.90;;;;;;5068436;28;20025;-40
2022/11/27 03:18:29;;;;;;;25.42;10.90;;;2.80;99.90;;;;;;5068705;28;20040;-40
2022/11/27 03:21:08;;;;;;;22.00;10.43;;;2.80;99.90;;;;;;5067016;28;20111;-39
2022/11/27 03:23:33;;;;;;;17.70;10.32;;;2.80;99.90;;;;;;5068910;28;20393;-40
2022/11/27 03:25:59;;;;;;;23.38;10.48;;;2.70;99.90;;;;;;5067616;28;20020;-39
2022/11/27 03:28:27;;;;;;;27.60;12.43;;;2.60;99.90;;;;;;5068542;28;20031;-39
2022/11/27 03:30:53;;;;;;;26.15;11.68;;;2.60;99.90;;;;;;5067016;28;20389;-40
2022/11/27 03:33:19;;;;;;;20.77;9.43;;;2.60;99.90;;;;;;5068505;28;20139;-40
2022/11/27 03:35:44;;;;;;;22.20;10.77;;;2.60;99.90;;;;;;5068816;28;20033;-41
2022/11/27 03:38:10;;;;;;;15.68;8.90;;;2.60;99.90;;;;;;5072901;28;20512;-41
2022/11/27 03:40:46;;;;;;;19.17;9.27;;;2.50;99.90;;;;;;5071977;28;20069;-39
2022/11/27 03:43:17;;;;;;;18.85;9.98;;;2.40;99.90;;;;;;5072476;28;20016;-39
2022/11/27 03:45:59;;;;;;;18.50;8.93;;;2.50;99.90;;;;;;5072274;28;20428;-42
2022/11/27 03:48:34;;;;;;;28.17;11.23;;;2.40;99.90;;;;;;5072705;28;20390;-39
2022/11/27 03:51:20;;;;;;;21.58;8.90;;;2.40;99.90;;;;;;5072159;28;20021;-39
2022/11/27 03:54:02;;;;;;;18.08;8.55;;;2.40;99.90;;;;;;5072651;28;20099;-39
2022/11/27 03:56:54;;;;;;;16.17;7.93;;;2.30;99.90;;;;;;5072828;28;20027;-39
2022/11/27 03:59:26;;;;;;;27.98;11.10;;;2.30;99.90;;;;;;5072073;28;20055;-39
2022/11/27 04:01:51;;;;;;;22.67;9.90;;;2.30;99.90;;;;;;5072743;28;20020;-39
2022/11/27 04:04:17;;;;;;;16.23;8.82;;;2.30;99.90;;;;;;5072360;28;20035;-39
2022/11/27 04:06:43;;;;;;;16.23;8.68;;;2.20;99.90;;;;;;5072499;28;20048;-39
2022/11/27 04:09:08;;;;;;;16.55;8.52;;;2.20;99.90;;;;;;5072046;28;20052;-39
2022/11/27 04:11:34;;;;;;;21.75;9.40;;;2.20;99.90;;;;;;5072446;28;20119;-39
2022/11/27 04:13:59;;;;;;;19.08;8.63;;;2.10;99.90;;;;;;5071718;28;20179;-39
2022/11/27 04:16:25;;;;;;;21.55;9.77;;;2.10;99.90;;;;;;5072236;28;20028;-39
2022/11/27 04:18:50;;;;;;;18.70;9.88;;;2.10;99.90;;;;;;5072095;28;20034;-39
2022/11/27 04:21:16;;;;;;;13.75;8.23;;;2.10;99.90;;;;;;5068826;28;20672;-39
2022/11/27 04:23:42;;;;;;;21.70;9.88;;;2.00;99.90;;;;;;5071639;28;20095;-39
2022/11/27 04:26:07;;;;;;;21.73;9.95;;;2.00;99.90;;;;;;5072262;28;20497;-39
2022/11/27 04:28:33;;;;;;;23.00;9.93;;;2.00;99.90;;;;;;5070792;28;20171;-39
2022/11/27 04:30:59;;;;;;;16.50;9.10;;;2.00;99.90;;;;;;5071422;28;20078;-39
2022/11/27 04:33:24;;;;;;;20.50;9.70;;;2.00;99.90;;;;;;5071935;28;20017;-39
2022/11/27 04:35:50;;;;;;;20.30;11.20;;;2.00;99.90;;;;;;5071822;28;20171;-39
2022/11/27 04:38:16;;;;;;;21.60;11.05;;;2.00;99.90;;;;;;5071790;28;20034;-39
2022/11/27 04:40:42;;;;;;;24.05;9.98;;;2.00;99.90;;;;;;5071091;28;20555;-40
2022/11/27 04:43:07;;;;;;;33.03;11.20;;;2.00;99.90;;;;;;5071631;28;20028;-39
2022/11/27 04:45:33;;;;;;;21.95;10.95;;;2.00;99.90;;;;;;5070953;28;20036;-40
2022/11/27 04:47:59;;;;;;;22.25;10.43;;;2.00;99.90;;;;;;5070434;28;20064;-40
2022/11/27 04:50:24;;;;;;;23.80;11.77;;;1.90;99.90;;;;;;5070920;28;20025;-40
2022/11/27 04:52:50;;;;;;;22.63;11.18;;;1.90;99.90;;;;;;5071735;28;20480;-39
2022/11/27 04:55:16;;;;;;;21.58;10.07;;;1.90;99.90;;;;;;5053477;28;20024;-42
2022/11/27 04:57:41;;;;;;;19.50;10.82;;;1.90;99.90;;;;;;5071678;28;20307;-40
2022/11/27 05:00:07;;;;;;;20.00;11.35;;;1.90;99.90;;;;;;5070800;28;20068;-40
2022/11/27 05:02:33;;;;;;;30.25;13.05;;;1.90;99.90;;;;;;5071025;28;20036;-40
2022/11/27 05:04:59;;;;;;;23.27;11.38;;;1.80;99.90;;;;;;5071340;28;20032;-40
2022/11/27 05:07:24;;;;;;;20.63;11.13;;;1.80;99.90;;;;;;5071356;28;20059;-39
2022/11/27 05:09:50;;;;;;;17.38;9.52;;;1.70;99.90;;;;;;5071004;28;20033;-40
2022/11/27 05:12:16;;;;;;;22.27;10.27;;;1.70;99.90;;;;;;5070647;28;20025;-41
2022/11/27 05:14:41;;;;;;;22.10;10.82;;;1.60;99.90;;;;;;5070729;28;20412;-40
2022/11/27 05:17:08;;;;;;;28.75;12.68;;;1.60;99.90;;;;;;5071466;28;20094;-40
2022/11/27 05:19:34;;;;;;;25.88;12.60;;;1.60;99.90;;;;;;5070769;28;20032;-39
2022/11/27 05:22:00;;;;;;;24.00;14.23;;;1.60;99.90;;;;;;5071377;28;20069;-40
2022/11/27 05:24:27;;;;;;;25.83;12.23;;;1.50;99.90;;;;;;5070851;28;20107;-42
2022/11/27 05:26:53;;;;;;;23.30;11.25;;;1.50;99.90;;;;;;5070801;28;20017;-40
2022/11/27 05:29:19;;;;;;;23.15;12.32;;;1.50;99.90;;;;;;5069841;28;20032;-40
2022/11/27 05:31:45;;;;;;;20.65;10.77;;;1.50;99.90;;;;;;5070526;28;20544;-40
2022/11/27 05:34:11;;;;;;;21.73;11.65;;;1.40;99.90;;;;;;5070717;28;20028;-41
2022/11/27 05:36:37;;;;;;;23.90;10.57;;;1.40;99.90;;;;;;5070589;28;20113;-42
2022/11/27 05:39:05;;;;;;;21.65;11.30;;;1.40;99.90;;;;;;5070503;28;20051;-40
2022/11/27 05:41:32;;;;;;;22.90;11.10;;;1.50;99.90;;;;;;5070632;28;20024;-40
2022/11/27 05:43:57;;;;;;;18.00;10.82;;;1.40;99.90;;;;;;5069915;28;20029;-40
2022/11/27 05:46:22;;;;;;;20.13;10.38;;;1.40;99.90;;;;;;5070554;28;20535;-43
2022/11/27 05:48:48;;;;;;;20.67;10.27;;;1.40;99.90;;;;;;5070594;28;20028;-41
2022/11/27 05:51:14;;;;;;;25.38;11.02;;;1.40;99.90;;;;;;5068590;28;20017;-40
2022/11/27 05:53:40;;;;;;;24.30;11.18;;;1.40;99.90;;;;;;5070188;28;20447;-40
2022/11/27 05:56:14;;;;;;;26.23;11.20;;;1.40;99.90;;;;;;5070024;28;20078;-39
2022/11/27 05:58:41;;;;;;;26.40;11.02;;;1.40;99.90;;;;;;5064568;28;20032;-40
2022/11/27 06:01:08;;;;;;;19.02;10.85;;;1.40;99.90;;;;;;5055748;28;20048;-40
2022/11/27 06:03:34;;;;;;;18.35;10.43;;;1.30;99.90;;;;;;5057756;28;20093;-40
2022/11/27 06:06:06;;;;;;;17.00;10.13;;;1.40;99.90;;;;;;5058259;28;20033;-40
2022/11/27 06:08:32;;;;;;;20.70;10.50;;;1.20;99.90;;;;;;5057250;28;20370;-39
2022/11/27 06:10:57;;;;;;;21.52;11.65;;;1.20;99.90;;;;;;5057156;28;20112;-39
2022/11/27 06:13:22;;;;;;;21.02;10.38;;;1.20;99.90;;;;;;5060919;28;20521;-39
2022/11/27 06:15:48;;;;;;;20.55;11.77;;;1.20;99.90;;;;;;5059810;28;20038;-39
2022/11/27 06:18:13;;;;;;;24.77;12.50;;;1.20;99.90;;;;;;5058479;28;20029;-42
2022/11/27 06:20:39;;;;;;;23.38;13.07;;;1.20;99.90;;;;;;5058383;28;20655;-40
2022/11/27 06:23:04;;;;;;;17.67;11.07;;;1.20;99.90;;;;;;5059909;28;20035;-39
2022/11/27 06:25:30;;;;;;;21.67;10.63;;;1.20;99.90;;;;;;5058275;28;20021;-41
2022/11/27 06:27:55;;;;;;;22.50;11.20;;;1.10;99.90;;;;;;5059057;28;20464;-39
2022/11/27 06:30:21;;;;;;;31.77;12.02;;;1.10;99.90;;;;;;5059374;28;20029;-39
2022/11/27 06:32:46;;;;;;;22.67;11.10;;;1.20;99.90;;;;;;5058268;28;20076;-39
2022/11/27 06:35:12;;;;;;;20.83;10.43;;;1.10;99.90;;;;;;5059898;28;20040;-39
2022/11/27 06:37:37;;;;;;;29.52;14.02;;;1.10;99.90;;;;;;5060104;28;20021;-39
2022/11/27 06:40:03;;;;;;;26.20;12.05;;;1.10;99.90;;;;;;5058599;28;20037;-40
2022/11/27 06:42:29;;;;;;;24.27;13.15;;;1.10;99.90;;;;;;5060174;28;20013;-39
2022/11/27 06:44:55;;;;;;;29.23;13.52;;;1.10;99.90;;;;;;5059666;28;20021;-39
2022/11/27 06:47:21;;;;;;;22.60;11.85;;;1.10;99.90;;;;;;5058855;28;20035;-39
2022/11/27 06:49:46;;;;;;;21.80;11.18;;;1.10;99.90;;;;;;5060662;28;20324;-39
2022/11/27 06:52:11;;;;;;;28.00;13.68;;;1.10;99.90;;;;;;5057830;28;20104;-40
2022/11/27 06:54:37;;;;;;;27.40;12.10;;;1.20;99.90;;;;;;5057531;28;20078;-40
2022/11/27 06:57:03;;;;;;;24.27;12.82;;;1.20;99.90;;;;;;5050279;28;20054;-40
2022/11/27 06:59:28;;;;;;;26.27;11.93;;;1.10;99.90;;;;;;5049796;28;20253;-40
2022/11/27 07:01:54;;;;;;;18.20;10.98;;;1.10;99.90;;;;;;5056393;28;20024;-40
2022/11/27 07:04:19;;;;;;;22.27;11.73;;;1.10;99.90;;;;;;5057649;28;20021;-40
2022/11/27 07:06:45;;;;;;;32.72;12.13;;;1.10;99.90;;;;;;5059215;28;20021;-39
2022/11/27 07:09:10;;;;;;;24.63;12.20;;;1.00;99.90;;;;;;5057906;28;20023;-40
2022/11/27 07:11:37;;;;;;;22.65;10.93;;;1.10;99.90;;;;;;5059900;28;20055;-39
2022/11/27 07:14:04;;;;;;;26.95;11.70;;;1.00;99.90;;;;;;5061566;28;20025;-40
2022/11/27 07:16:31;;;;;;;24.20;11.65;;;1.10;99.90;;;;;;5059360;28;20021;-40
2022/11/27 07:19:03;;;;;;;20.38;10.20;;;1.00;99.90;;;;;;5063594;28;20039;-40
2022/11/27 07:21:30;;;;;;;21.70;11.27;;;1.00;99.90;;;;;;5076801;28;20063;-40
2022/11/27 07:23:56;;;;;;;23.45;12.10;;;1.00;99.90;;;;;;5079743;28;20775;-40
2022/11/27 07:26:24;;;;;;;28.60;12.38;;;1.00;99.90;;;;;;5088699;28;20024;-38
2022/11/27 07:28:51;;;;;;;31.67;15.50;;;1.00;99.90;;;;;;5089018;28;20077;-38
2022/11/27 07:31:20;;;;;;;25.75;12.55;;;1.00;99.90;;;;;;5087879;28;20041;-38
2022/11/27 07:33:46;;;;;;;18.93;8.87;;;1.00;99.90;;;;;;5088395;28;20029;-38
2022/11/27 07:36:20;;;;;;;24.63;11.90;;;1.00;99.90;;;;;;5088151;28;20093;-38
2022/11/27 07:38:46;;;;;;;26.73;12.88;;;1.10;99.90;;;;;;5087538;28;20016;-39
2022/11/27 07:41:13;;;;;;;22.33;11.88;;;1.20;99.90;;;;;;5086652;28;20065;-39
2022/11/27 07:43:39;;;;;;;21.08;11.82;;;1.20;99.90;;;;;;5088439;28;20183;-39
2022/11/27 07:46:06;;;;;;;26.75;11.50;;;1.20;99.90;;;;;;5083964;28;20020;-38
2022/11/27 07:48:32;;;;;;;23.33;12.23;;;1.30;99.90;;;;;;5080853;28;20680;-38
2022/11/27 07:50:58;;;;;;;27.38;13.98;;;1.30;99.90;;;;;;5088038;28;20057;-38
2022/11/27 07:53:23;;;;;;;19.88;10.38;;;1.30;99.90;;;;;;5087252;28;20036;-38
2022/11/27 07:55:49;;;;;;;17.33;9.90;;;1.40;99.90;;;;;;5067483;28;20478;-38
2022/11/27 07:58:15;;;;;;;19.50;11.05;;;1.40;99.90;;;;;;5070341;28;20033;-38
2022/11/27 08:00:40;;;;;;;27.73;12.57;;;1.50;99.90;;;;;;5067667;28;20465;-38
2022/11/27 08:03:06;;;;;;;21.85;11.60;;;1.50;99.90;;;;;;5067382;28;20092;-39
2022/11/27 08:05:35;;;;;;;20.98;11.07;;;1.60;99.90;;;;;;5068107;28;20478;-39
2022/11/27 08:08:03;;;;;;;24.17;12.07;;;1.60;99.90;;;;;;5068114;28;20021;-40
2022/11/27 08:10:29;;;;;;;22.10;11.77;;;1.60;99.90;;;;;;5063315;28;20044;-38
2022/11/27 08:12:54;;;;;;;28.58;11.63;;;1.60;99.90;;;;;;5063021;28;20071;-38
2022/11/27 08:15:20;;;;;;;22.15;11.20;;;1.70;99.90;;;;;;5068571;28;20102;-39
2022/11/27 08:17:45;;;;;;;20.88;10.55;;;1.70;99.90;;;;;;5068043;28;20039;-39
2022/11/27 08:20:11;;;;;;;17.05;10.65;;;1.70;99.90;;;;;;5067161;28;20465;-38
2022/11/27 08:22:36;;;;;;;22.67;12.30;;;1.80;99.90;;;;;;5066495;28;20023;-38
2022/11/27 08:25:02;;;;;;;25.20;13.32;;;1.90;99.90;;;;;;5073346;28;20103;-38
2022/11/27 08:27:30;;;;;;;21.55;11.77;;;1.90;99.90;;;;;;5071975;28;20020;-38
2022/11/27 08:29:56;;;;;;;21.17;11.27;;;1.90;99.90;;;;;;5071447;28;20043;-38
2022/11/27 08:32:21;;;;;;;19.48;11.57;;;2.00;99.90;;;;;;5071968;28;20485;-38
2022/11/27 08:34:47;;;;;;;22.38;12.40;;;2.00;99.90;;;;;;5071521;28;20342;-38
2022/11/27 08:37:12;;;;;;;20.20;11.30;;;2.10;99.90;;;;;;5071612;28;20332;-38
2022/11/27 08:39:37;;;;;;;18.35;10.98;;;2.10;99.90;;;;;;5071076;28;20029;-38
2022/11/27 08:42:03;;;;;;;25.30;12.88;;;2.10;99.90;;;;;;5071409;28;20032;-38
2022/11/27 08:44:28;;;;;;;23.45;12.25;;;2.10;99.90;;;;;;5065895;28;20012;-38
2022/11/27 08:46:54;;;;;;;21.13;12.10;;;2.10;99.90;;;;;;5064505;28;20095;-38
2022/11/27 08:49:20;;;;;;;19.67;11.00;;;2.20;99.90;;;;;;5064057;28;20640;-38
2022/11/27 08:51:45;;;;;;;17.95;10.80;;;2.20;99.90;;;;;;5067823;28;20091;-38
2022/11/27 08:54:11;;;;;;;20.35;11.02;;;2.30;99.90;;;;;;5068265;28;20484;-38
2022/11/27 08:56:36;;;;;;;16.70;10.30;;;2.20;99.90;;;;;;5082612;28;20085;-38
2022/11/27 08:59:01;;;;;;;23.60;11.65;;;2.30;99.90;;;;;;5091387;28;20016;-38
2022/11/27 09:01:29;;;;;;;19.00;11.18;;;2.30;99.90;;;;;;5064561;28;20047;-40
2022/11/27 09:03:55;;;;;;;27.30;13.13;;;2.40;99.90;;;;;;5080110;28;20436;-40
2022/11/27 09:06:23;;;;;;;20.90;12.18;;;2.40;99.90;;;;;;5086506;28;20047;-39
2022/11/27 09:08:49;;;;;;;20.27;12.90;;;2.50;99.90;;;;;;5082627;28;20012;-41
2022/11/27 09:11:18;;;;;;;19.25;11.35;;;2.60;99.90;;;;;;5090666;28;20085;-39
2022/11/27 09:13:45;;;;;;;19.52;10.75;;;2.70;99.90;;;;;;5090680;28;20027;-40
2022/11/27 09:16:13;;;;;;;17.33;10.05;;;2.80;99.90;;;;;;5091409;28;20048;-40
2022/11/27 09:18:39;;;;;;;15.98;9.95;;;3.00;99.90;;;;;;5091052;28;20111;-40
2022/11/27 09:21:08;;;;;;;19.75;11.35;;;3.10;99.90;;;;;;5090696;28;20528;-41
2022/11/27 09:23:36;;;;;;;17.08;10.70;;;3.20;99.90;;;;;;5090895;28;20366;-41
2022/11/27 09:26:03;;;;;;;18.33;10.57;;;3.30;99.90;;;;;;5089752;28;20077;-40
2022/11/27 09:28:30;;;;;;;19.00;11.35;;;3.40;99.90;;;;;;5091010;28;20020;-41
2022/11/27 09:30:57;;;;;;;19.90;11.35;;;3.50;99.90;;;;;;5090683;28;20097;-50
2022/11/27 09:33:24;;;;;;;21.77;11.68;;;3.60;99.90;;;;;;5091183;28;20088;-41
2022/11/27 09:35:50;;;;;;;16.77;10.68;;;3.70;99.90;;;;;;5091076;28;20032;-42
2022/11/27 09:38:15;;;;;;;22.05;12.45;;;3.80;99.90;;;;;;5090722;28;20223;-42
2022/11/27 09:40:48;;;;;;;23.23;11.30;;;3.80;99.90;;;;;;5090156;28;20036;-41
2022/11/27 09:43:14;;;;;;;19.45;11.40;;;3.90;99.90;;;;;;5090588;28;20389;-41
2022/11/27 09:45:48;;;;;;;16.52;10.77;;;3.90;99.90;;;;;;5090557;28;20103;-41
2022/11/27 09:48:20;;;;;;;13.93;9.30;;;3.90;99.90;;;;;;5090623;28;20024;-41
2022/11/27 09:50:50;;;;;;;17.92;10.25;;;3.90;99.90;;;;;;5068013;28;20477;-40
2022/11/27 09:53:27;;;;;;;15.27;9.70;;;3.90;99.90;;;;;;5069588;28;20029;-41
2022/11/27 09:55:57;;;;;;;17.55;9.93;;;3.90;99.90;;;;;;5067182;28;20044;-43
2022/11/27 09:58:40;;;;;;;16.40;10.10;;;4.00;99.90;;;;;;5069154;28;20779;-40
2022/11/27 10:01:12;;;;;;;17.73;9.98;;;3.90;99.90;;;;;;5068166;28;20070;-41
2022/11/27 10:03:41;;;;;;;21.60;9.98;;;4.00;99.90;;;;;;5069010;28;20028;-41
2022/11/27 10:06:20;;;;;;;16.80;10.10;;;4.10;99.90;;;;;;5068816;28;20013;-41
2022/11/27 10:09:11;;;;;;;16.17;10.25;;;4.20;99.90;;;;;;5068836;28;20355;-40
2022/11/27 10:11:40;;;;;;;15.52;10.40;;;4.40;99.90;;;;;;5067524;28;20048;-40
2022/11/27 10:14:39;;;;;;;20.35;10.90;;;4.60;99.90;;;;;;5068548;28;20028;-41
2022/11/27 10:17:23;;;;;;;14.93;9.80;;;4.90;99.90;;;;;;5069083;28;20036;-42
2022/11/27 10:19:55;;;;;;;14.82;9.48;;;5.60;99.90;;;;;;5068290;28;20033;-41
2022/11/27 10:22:41;;;;;;;19.42;10.40;;;6.50;99.90;;;;;;5068865;28;20056;-41
2022/11/27 10:25:06;;;;;;;13.40;9.52;;;7.70;99.90;;;;;;5054315;28;20041;-41
2022/11/27 10:27:41;;;;;;;15.48;9.52;;;9.20;99.90;;;;;;5054027;28;20127;-45
2022/11/27 10:30:16;;;;;;;13.13;9.20;;;10.60;99.90;;;;;;5067926;28;20119;-42
2022/11/27 10:32:43;;;;;;;12.43;8.38;;;12.20;99.90;;;;;;5068487;28;20440;-42
2022/11/27 10:35:22;;;;;;;14.57;8.55;;;13.60;99.90;;;;;;5068647;28;20065;-41
2022/11/27 10:38:08;;;;;;;13.02;8.57;;;14.80;97.50;;;;;;5068482;28;20024;-43
2022/11/27 10:40:42;;;;;;;11.70;8.30;;;15.80;95.40;;;;;;5067531;28;20119;-42
2022/11/27 10:45:50;;;;;;;12.45;9.00;;;16.70;90.00;;;;;;5084863;28;20568;-43
2022/11/27 10:48:16;;;;;;;12.55;8.82;;;16.30;90.60;;;;;;5079160;28;20040;-42
2022/11/27 10:50:42;;;;;;;11.07;8.32;;;16.40;90.10;;;;;;5081152;28;20090;-42
2022/11/27 10:53:14;;;;;;;12.25;8.50;;;16.00;90.00;;;;;;5084402;28;20029;-42
2022/11/27 10:55:55;;;;;;;9.70;8.07;;;15.50;90.70;;;;;;5083947;28;20024;-44
2022/11/27 10:58:44;;;;;;;12.35;8.65;;;15.00;91.50;;;;;;5083407;28;20061;-42
2022/11/27 11:01:16;;;;;;;11.68;7.55;;;14.50;92.10;;;;;;5080998;28;20029;-44
2022/11/27 11:03:41;;;;;;;9.35;7.90;;;14.80;92.50;;;;;;5082466;28;20717;-41
2022/11/27 11:06:17;;;;;;;12.35;7.50;;;14.60;92.70;;;;;;5083918;28;20031;-42
2022/11/27 11:08:43;;;;;;;9.60;6.88;;;14.50;93.00;;;;;;5081524;28;20008;-45
2022/11/27 11:11:09;;;;;;;11.23;6.68;;;14.40;93.20;;;;;;5082953;28;20020;-42
2022/11/27 11:13:40;;;;;;;9.88;7.05;;;13.90;93.80;;;;;;5084065;28;20036;-44
2022/11/27 11:16:20;;;;;;;17.25;8.07;;;13.30;94.30;;;;;;5083967;28;20028;-43
2022/11/27 11:18:51;;;;;;;11.55;7.03;;;12.60;95.90;;;;;;5083913;28;20025;-40
2022/11/27 11:21:36;;;;;;;11.15;7.15;;;12.00;96.90;;;;;;5083140;28;20053;-43
2022/11/27 11:24:28;;;;;;;11.07;7.20;;;11.60;98.40;;;;;;5083326;28;20031;-42
2022/11/27 11:27:02;;;;;;;12.50;7.20;;;11.30;99.90;;;;;;5075772;28;20486;-43
2022/11/27 11:29:40;;;;;;;9.85;5.75;;;11.30;99.90;;;;;;5081624;28;20115;-43
2022/11/27 11:32:11;;;;;;;7.97;5.82;;;11.50;99.30;;;;;;5077511;28;20070;-42
2022/11/27 11:34:40;;;;;;;;;;;11.10;99.50;;;;;;5083671;28;20221;-43
2022/11/27 11:37:17;;;;;;;8.65;5.57;;;10.80;99.90;;;;;;5084153;28;19905;-42
2022/11/27 11:39:54;;;;;;;7.45;4.88;;;10.60;99.90;;;;;;5081376;28;20032;-44
2022/11/27 11:42:23;;;;;;;7.43;5.15;;;10.40;99.90;;;;;;5072343;28;20028;-41
2022/11/27 11:44:52;;;;;;;11.95;5.75;;;10.20;99.90;;;;;;5080635;28;20027;-42
2022/11/27 11:47:21;;;;;;;9.43;4.65;;;10.10;99.90;;;;;;5083580;28;20236;-41
2022/11/27 11:49:47;;;;;;;9.63;4.70;;;9.90;99.90;;;;;;5081815;28;20020;-41
2022/11/27 11:52:27;;;;;;;11.98;5.90;;;9.90;99.90;;;;;;5083837;28;20020;-42
2022/11/27 11:55:05;;;;;;;10.75;5.10;;;9.80;99.90;;;;;;5080733;28;20807;-41
2022/11/27 11:57:54;;;;;;;11.05;5.22;;;9.70;99.90;;;;;;5071098;28;20033;-43
2022/11/27 12:00:22;;;;;;;11.90;5.13;;;9.60;99.90;;;;;;5070896;28;20025;-42
2022/11/27 12:03:10;;;;;;;12.63;5.47;;;9.50;99.90;;;;;;5070941;28;20033;-41
2022/11/27 12:05:54;;;;;;;13.13;5.22;;;9.40;99.90;;;;;;5071105;28;20648;-42
2022/11/27 12:08:45;;;;;;;10.25;5.28;;;9.40;99.90;;;;;;5071167;28;20435;-42
2022/11/27 12:11:13;;;;;;;;;;;9.40;99.90;;;;;;5070933;28;20412;-43
2022/11/27 12:14:06;;;;;;;11.20;5.63;;;9.40;99.90;;;;;;5070783;28;19904;-41
2022/11/27 12:17:08;;;;;;;17.52;8.52;;;9.40;99.90;;;;;;5070938;28;20020;-41
2022/11/27 12:19:44;;;;;;;11.45;7.20;;;9.60;99.90;;;;;;5069301;28;20072;-42
2022/11/27 12:22:47;;;;;;;7.85;5.45;;;9.60;99.90;;;;;;5070211;28;20020;-41
2022/11/27 12:25:26;;;;;;;8.70;4.57;;;9.70;99.90;;;;;;5066245;28;20075;-43
2022/11/27 12:28:23;;;;;;;13.57;5.53;;;9.80;99.90;;;;;;5071180;28;20031;-40
2022/11/27 12:30:58;;;;;;;10.70;5.60;;;9.90;99.90;;;;;;5069169;28;20104;-45
2022/11/27 12:33:42;;;;;;;10.05;5.50;;;9.80;99.90;;;;;;5070859;28;20033;-45
2022/11/27 12:36:36;;;;;;;9.43;5.53;;;9.90;99.90;;;;;;5070983;28;20115;-41
2022/11/27 12:39:31;;;;;;;8.82;5.38;;;10.00;99.90;;;;;;5071037;28;20016;-42
2022/11/27 12:42:26;;;;;;;11.02;5.28;;;10.00;99.90;;;;;;5071488;28;20020;-43
2022/11/27 12:45:03;;;;;;;10.35;5.88;;;10.10;99.90;;;;;;5070732;28;20032;-43
2022/11/27 12:47:45;;;;;;;9.90;5.50;;;10.10;99.90;;;;;;5071296;28;20017;-43
2022/11/27 12:50:31;;;;;;;6.85;4.88;;;10.10;99.90;;;;;;5070433;28;20021;-43
2022/11/27 12:53:13;;;;;;;9.32;4.63;;;10.20;99.90;;;;;;5071185;28;20024;-40
2022/11/27 12:55:42;;;;;;;12.30;6.47;;;10.20;99.90;;;;;;5071105;28;20016;-42
2022/11/27 12:58:21;;;;;;;9.55;4.60;;;10.30;99.90;;;;;;5070426;28;20064;-41